B Gas Linda — 9HA2930 — position and weather

sailwx.info

Track history (hours):
 
Tides and Currents Weather Stations Pressure Air Temp Water Temp Dewpoint Dewpoint Depression Visibility Wind Speed Wind Dir Waves Ship Positions

B Gas Linda

Last reported at 2017-Aug-26 06:45 UTC. Time now 2017-Nov-23 02:03 UTC.
Position N 40°42' E 018°56'.
Warning: this ship's position is months out of date.

Length 73 m; draft 4.1 m.

Type: Ship (hazmat cat C). MMSI: 256775000.

Date/timePositionNaut miles runAvg speedWind from/ knotsBaromVisibWave heightAir tempDewpointWater temp
2017-Aug-26 06:45N 40°42' E 018°56'2110.6
2017-Aug-26 04:48N 40°22' E 018°47'311.0
2017-Aug-26 04:30N 40°19' E 018°45'510.5
2017-Aug-26 04:00N 40°14' E 018°43'12 9.8
2017-Aug-26 02:50N 40°03' E 018°39'3 9.8
2017-Aug-26 02:30N 39°60' E 018°38'5 9.8
2017-Aug-26 02:01N 39°55' E 018°36'5 9.8
2017-Aug-26 01:30N 39°51' E 018°34'5 9.9
2017-Aug-26 01:00N 39°46' E 018°31'510.3
2017-Aug-26 00:30N 39°42' E 018°28'510.3
2017-Aug-26 00:01N 39°38' E 018°23'510.0
2017-Aug-25 23:31N 39°34' E 018°19'510.1
2017-Aug-25 23:00N 39°30' E 018°15'510.4
2017-Aug-25 22:31N 39°26' E 018°11'610.4
2017-Aug-25 21:56N 39°22' E 018°06'410.5
2017-Aug-25 21:30N 39°18' E 018°02'510.7
2017-Aug-25 21:01N 39°14' E 017°58'510.8
2017-Aug-25 20:30N 39°10' E 017°53'510.7
2017-Aug-25 20:01N 39°05' E 017°49'510.7
2017-Aug-25 19:30N 39°01' E 017°45'510.7
2017-Aug-25 19:00N 38°57' E 017°40'10210.3
2017-Aug-25 09:06N 37°38' E 016°19'511.0
2017-Aug-25 08:36N 37°33' E 016°14'211.2
2017-Aug-25 08:26N 37°32' E 016°13'611.1
2017-Aug-25 07:55N 37°27' E 016°09'410.4
2017-Aug-25 07:30N 37°24' E 016°05'510.4
2017-Aug-25 07:00N 37°20' E 016°01'510.7
2017-Aug-25 06:30N 37°16' E 015°57'611.0
2017-Aug-25 06:00N 37°11' E 015°53'610.9
2017-Aug-25 05:30N 37°07' E 015°48'610.9
2017-Aug-25 05:00N 37°03' E 015°44'1610.7
2017-Aug-25 03:30N 36°50' E 015°31'510.7
2017-Aug-25 03:00N 36°46' E 015°27'510.8
2017-Aug-25 02:30N 36°42' E 015°23'510.4
2017-Aug-25 02:01N 36°38' E 015°19'5 9.2
2017-Aug-25 01:30N 36°35' E 015°15'510.0
2017-Aug-25 01:01N 36°34' E 015°09'510.1
2017-Aug-25 00:30N 36°33' E 015°02'510.0
2017-Aug-24 23:59N 36°32' E 014°56'510.8
2017-Aug-24 23:30N 36°31' E 014°50'611.2
2017-Aug-24 23:00N 36°30' E 014°43'611.2
2017-Aug-24 22:30N 36°29' E 014°36'611.1
2017-Aug-24 22:00N 36°28' E 014°29'611.1
2017-Aug-24 21:30N 36°30' E 014°23'611.0
2017-Aug-24 20:59N 36°32' E 014°16'511.0
2017-Aug-24 20:31N 36°33' E 014°10'510.8
2017-Aug-24 20:00N 36°35' E 014°03'510.7
2017-Aug-24 19:30N 36°37' E 013°57'610.7
2017-Aug-24 18:58N 36°39' E 013°50'510.6
2017-Aug-24 18:31N 36°40' E 013°44'610.6
2017-Aug-24 17:59N 36°42' E 013°38'1210.7
2017-Aug-24 16:52N 36°46' E 013°24'810.8
2017-Aug-24 16:07N 36°48' E 013°14'110.8
2017-Aug-24 16:00N 36°48' E 013°12'510.6
2017-Aug-24 15:30N 36°50' E 013°06'610.6
2017-Aug-24 14:59N 36°52' E 012°60'710.6
2017-Aug-24 14:20N 36°54' E 012°52'410.8
2017-Aug-24 13:59N 36°55' E 012°47'510.8
2017-Aug-24 13:31N 36°57' E 012°41'510.8
2017-Aug-24 13:00N 36°59' E 012°35'13610.3
2017-Aug-23 23:47N 37°35' E 009°50'310.3
2017-Aug-23 23:30N 37°35' E 009°46'1010.6
2017-Aug-23 22:34N 37°35' E 009°34'110.5
2017-Aug-23 22:30N 37°35' E 009°33'510.2
2017-Aug-23 22:00N 37°36' E 009°26'510.0
2017-Aug-23 21:27N 37°36' E 009°20'1110.2
2017-Aug-23 20:24N 37°36' E 009°06'410.1
2017-Aug-23 20:00N 37°37' E 009°01'510.1
2017-Aug-23 19:30N 37°37' E 008°55'510.1
2017-Aug-23 19:00N 37°37' E 008°48'510.0
2017-Aug-23 18:30N 37°36' E 008°42'5 9.9
2017-Aug-23 18:00N 37°36' E 008°36'5 9.7
2017-Aug-23 17:30N 37°35' E 008°30'5 9.6
2017-Aug-23 17:00N 37°35' E 008°24'5 9.5
2017-Aug-23 16:30N 37°34' E 008°18'5 9.5
2017-Aug-23 15:56N 37°34' E 008°11'4 9.5
2017-Aug-23 15:29N 37°34' E 008°06'11 9.5
2017-Aug-23 14:20N 37°33' E 007°52'31 9.6
2017-Aug-23 11:05N 37°30' E 007°13'1 9.8
2017-Aug-23 11:00N 37°30' E 007°12'20 9.9
2017-Aug-23 09:01N 37°28' E 006°47'310.2
2017-Aug-23 08:45N 37°28' E 006°43'310.1
2017-Aug-23 08:27N 37°27' E 006°40'410.0
2017-Aug-23 08:00N 37°27' E 006°34'5 9.9
2017-Aug-23 07:30N 37°26' E 006°28'5 9.6
2017-Aug-23 07:00N 37°26' E 006°22'5 9.4
2017-Aug-23 06:30N 37°25' E 006°16'15 9.4
2017-Aug-23 04:54N 37°24' E 005°57'5 9.1
2017-Aug-23 04:24N 37°24' E 005°51'4 9.0
2017-Aug-23 04:00N 37°23' E 005°47'11 9.1
2017-Aug-23 02:46N 37°22' E 005°33'2 9.2
2017-Aug-23 02:30N 37°22' E 005°30'67 9.5
2017-Aug-22 19:27N 37°16' E 004°06'4 9.4
2017-Aug-22 19:00N 37°15' E 004°01'6 9.6
2017-Aug-22 18:24N 37°14' E 003°53'4 9.6
2017-Aug-22 18:00N 37°13' E 003°49'6 9.7
2017-Aug-22 17:26N 37°12' E 003°42'14 9.3
2017-Aug-22 15:55N 37°10' E 003°25'28 9.9
2017-Aug-22 13:06N 37°05' E 002°50'110.1
2017-Aug-22 13:00N 37°05' E 002°49'910.0
2017-Aug-22 12:06N 37°03' E 002°38'56 9.4
2017-Aug-22 06:09N 36°53' E 001°29'1 9.5
2017-Aug-22 06:00N 36°53' E 001°27'11 9.6
2017-Aug-22 04:52N 36°51' E 001°13'4 9.9
2017-Aug-22 04:26N 36°50' E 001°08'1410.1
2017-Aug-22 03:04N 36°49' E 000°51'1 9.9
2017-Aug-22 02:58N 36°49' E 000°50'510.0
2017-Aug-22 02:30N 36°47' E 000°44'510.1
2017-Aug-22 01:58N 36°46' E 000°38'510.0
2017-Aug-22 01:29N 36°45' E 000°32'5 9.8
2017-Aug-22 01:00N 36°45' E 000°26'5 9.5
2017-Aug-22 00:30N 36°44' E 000°20'5 9.3
2017-Aug-21 23:57N 36°43' E 000°14'4 9.0
2017-Aug-21 23:29N 36°42' E 000°09'4 8.7
2017-Aug-21 22:59N 36°41' E 000°03'6 8.5
2017-Aug-21 22:20N 36°40' W 000°03'3 8.7
2017-Aug-21 22:00N 36°40' W 000°07'5 8.7
2017-Aug-21 21:28N 36°39' W 000°13'4 8.6
2017-Aug-21 20:59N 36°38' W 000°18'4 8.6
2017-Aug-21 20:30N 36°37' W 000°23'4 8.2
2017-Aug-21 20:00N 36°37' W 000°28'4 8.1
2017-Aug-21 19:31N 36°36' W 000°33'4 8.2
2017-Aug-21 19:00N 36°35' W 000°38'8 8.0
2017-Aug-21 18:00N 36°34' W 000°48'4 7.9
2017-Aug-21 17:30N 36°33' W 000°53'4 8.4
2017-Aug-21 17:00N 36°33' W 000°58'205 9.1
2017-Aug-20 18:26N 36°01' W 005°09'4 9.7
2017-Aug-20 18:01N 36°01' W 005°14'510.1
2017-Aug-20 17:31N 35°59' W 005°20'612.6
2017-Aug-20 17:00N 35°57' W 005°28'912.3
2017-Aug-20 16:15N 35°55' W 005°39'512.3
2017-Aug-20 15:52N 35°55' W 005°44'611.5
2017-Aug-20 15:22N 35°55' W 005°51'82 8.1
2017-Aug-20 05:16N 36°09' W 007°31'3 7.7
2017-Aug-20 04:54N 36°10' W 007°34'10 9.1
2017-Aug-20 03:47N 36°12' W 007°46'3510.6
2017-Aug-20 00:30N 36°20' W 008°28'810.8
2017-Aug-19 23:46N 36°22' W 008°38'810.4
2017-Aug-19 22:58N 36°24' W 008°48'710.6
2017-Aug-19 22:21N 36°25' W 008°56'410.7
2017-Aug-19 22:00N 36°26' W 009°00'510.6
2017-Aug-19 21:30N 36°27' W 009°07'510.6
2017-Aug-19 21:00N 36°29' W 009°13'510.5
2017-Aug-19 20:30N 36°30' W 009°19'510.6
2017-Aug-19 20:00N 36°34' W 009°24'510.8
2017-Aug-19 19:30N 36°37' W 009°29'510.8
2017-Aug-19 19:00N 36°41' W 009°33'510.9
2017-Aug-19 18:31N 36°46' W 009°37'611.6
2017-Aug-19 18:00N 36°51' W 009°39'611.4
2017-Aug-19 17:30N 36°57' W 009°41'611.2
2017-Aug-19 17:00N 37°02' W 009°42'511.0
2017-Aug-19 16:30N 37°08' W 009°44'611.3
2017-Aug-19 16:00N 37°13' W 009°45'611.1
2017-Aug-19 15:30N 37°19' W 009°47'510.9
2017-Aug-19 15:00N 37°24' W 009°49'1010.4
2017-Aug-19 14:00N 37°34' W 009°52'510.8
2017-Aug-19 13:30N 37°39' W 009°54'711.3
2017-Aug-19 12:56N 37°45' W 009°56'511.2
2017-Aug-19 12:31N 37°50' W 009°57'611.1
2017-Aug-19 12:00N 37°55' W 009°59'510.9
2017-Aug-19 11:30N 38°01' W 010°00'510.8
2017-Aug-19 11:00N 38°06' W 010°01'510.7
2017-Aug-19 10:30N 38°11' W 010°03'510.8
2017-Aug-19 10:00N 38°17' W 010°05'510.9
2017-Aug-19 09:30N 38°22' W 010°07'510.9
2017-Aug-19 09:01N 38°27' W 010°08'611.1
2017-Aug-19 08:30N 38°33' W 010°10'611.5
2017-Aug-19 08:00N 38°38' W 010°11'510.8
2017-Aug-19 07:30N 38°44' W 010°12'611.1
2017-Aug-19 07:00N 38°49' W 010°12'611.0
2017-Aug-19 06:30N 38°55' W 010°12'611.6
2017-Aug-19 06:00N 39°00' W 010°12'611.6
2017-Aug-19 05:30N 39°06' W 010°12'611.1
2017-Aug-19 05:00N 39°12' W 010°12'611.1
2017-Aug-19 04:30N 39°17' W 010°13'511.0
2017-Aug-19 04:00N 39°23' W 010°13'611.1
2017-Aug-19 03:30N 39°28' W 010°12'611.4
2017-Aug-19 02:59N 39°34' W 010°12'611.3
2017-Aug-19 02:28N 39°40' W 010°12'  
2017-Aug-16 13:54N 48°56' W 005°38'5 9.5
2017-Aug-16 13:22N 48°59' W 005°31'5 9.5
2017-Aug-16 12:48N 49°02' W 005°24'4 9.4
2017-Aug-16 12:25N 49°04' W 005°20'4 9.4
2017-Aug-16 11:57N 49°06' W 005°14'4 9.1
2017-Aug-16 11:27N 49°08' W 005°08'4 9.0
2017-Aug-16 10:59N 49°10' W 005°02'6 9.0
2017-Aug-16 10:18N 49°14' W 004°54'3 8.9
2017-Aug-16 10:00N 49°15' W 004°51'5 8.9
2017-Aug-16 09:27N 49°17' W 004°44'15 9.4
2017-Aug-16 07:51N 49°25' W 004°24'410.0
2017-Aug-16 07:26N 49°27' W 004°19'410.1
2017-Aug-16 07:00N 49°29' W 004°13'  
Track history (hours):
 
Tides and Currents Weather Stations Pressure Air Temp Water Temp Dewpoint Dewpoint Depression Visibility Wind Speed Wind Dir Waves Ship Positions

B Gas Linda

Last reported at 2017-Aug-26 06:45 UTC. Time now 2017-Nov-23 02:03 UTC.
Position N 40°42' E 018°56'.
Warning: this ship's position is months out of date.

Length 73 m; draft 4.1 m.

Type: Ship (hazmat cat C). MMSI: 256775000.

Date/timePositionNaut miles runAvg speedWind from/ knotsBaromVisibWave heightAir tempDewpointWater temp
2017-Aug-26 06:45N 40°42' E 018°56'2110.6
2017-Aug-26 04:48N 40°22' E 018°47'311.0
2017-Aug-26 04:30N 40°19' E 018°45'510.5
2017-Aug-26 04:00N 40°14' E 018°43'12 9.8
2017-Aug-26 02:50N 40°03' E 018°39'3 9.8
2017-Aug-26 02:30N 39°60' E 018°38'5 9.8
2017-Aug-26 02:01N 39°55' E 018°36'5 9.8
2017-Aug-26 01:30N 39°51' E 018°34'5 9.9
2017-Aug-26 01:00N 39°46' E 018°31'510.3
2017-Aug-26 00:30N 39°42' E 018°28'510.3
2017-Aug-26 00:01N 39°38' E 018°23'510.0
2017-Aug-25 23:31N 39°34' E 018°19'510.1
2017-Aug-25 23:00N 39°30' E 018°15'510.4
2017-Aug-25 22:31N 39°26' E 018°11'610.4
2017-Aug-25 21:56N 39°22' E 018°06'410.5
2017-Aug-25 21:30N 39°18' E 018°02'510.7
2017-Aug-25 21:01N 39°14' E 017°58'510.8
2017-Aug-25 20:30N 39°10' E 017°53'510.7
2017-Aug-25 20:01N 39°05' E 017°49'510.7
2017-Aug-25 19:30N 39°01' E 017°45'510.7
2017-Aug-25 19:00N 38°57' E 017°40'10210.3
2017-Aug-25 09:06N 37°38' E 016°19'511.0
2017-Aug-25 08:36N 37°33' E 016°14'211.2
2017-Aug-25 08:26N 37°32' E 016°13'611.1
2017-Aug-25 07:55N 37°27' E 016°09'410.4
2017-Aug-25 07:30N 37°24' E 016°05'510.4
2017-Aug-25 07:00N 37°20' E 016°01'510.7
2017-Aug-25 06:30N 37°16' E 015°57'611.0
2017-Aug-25 06:00N 37°11' E 015°53'610.9
2017-Aug-25 05:30N 37°07' E 015°48'610.9
2017-Aug-25 05:00N 37°03' E 015°44'1610.7
2017-Aug-25 03:30N 36°50' E 015°31'510.7
2017-Aug-25 03:00N 36°46' E 015°27'510.8
2017-Aug-25 02:30N 36°42' E 015°23'510.4
2017-Aug-25 02:01N 36°38' E 015°19'5 9.2
2017-Aug-25 01:30N 36°35' E 015°15'510.0
2017-Aug-25 01:01N 36°34' E 015°09'510.1
2017-Aug-25 00:30N 36°33' E 015°02'510.0
2017-Aug-24 23:59N 36°32' E 014°56'510.8
2017-Aug-24 23:30N 36°31' E 014°50'611.2
2017-Aug-24 23:00N 36°30' E 014°43'611.2
2017-Aug-24 22:30N 36°29' E 014°36'611.1
2017-Aug-24 22:00N 36°28' E 014°29'611.1
2017-Aug-24 21:30N 36°30' E 014°23'611.0
2017-Aug-24 20:59N 36°32' E 014°16'511.0
2017-Aug-24 20:31N 36°33' E 014°10'510.8
2017-Aug-24 20:00N 36°35' E 014°03'510.7
2017-Aug-24 19:30N 36°37' E 013°57'610.7
2017-Aug-24 18:58N 36°39' E 013°50'510.6
2017-Aug-24 18:31N 36°40' E 013°44'610.6
2017-Aug-24 17:59N 36°42' E 013°38'1210.7
2017-Aug-24 16:52N 36°46' E 013°24'810.8
2017-Aug-24 16:07N 36°48' E 013°14'110.8
2017-Aug-24 16:00N 36°48' E 013°12'510.6
2017-Aug-24 15:30N 36°50' E 013°06'610.6
2017-Aug-24 14:59N 36°52' E 012°60'710.6
2017-Aug-24 14:20N 36°54' E 012°52'410.8
2017-Aug-24 13:59N 36°55' E 012°47'510.8
2017-Aug-24 13:31N 36°57' E 012°41'510.8
2017-Aug-24 13:00N 36°59' E 012°35'13610.3
2017-Aug-23 23:47N 37°35' E 009°50'310.3
2017-Aug-23 23:30N 37°35' E 009°46'1010.6
2017-Aug-23 22:34N 37°35' E 009°34'110.5
2017-Aug-23 22:30N 37°35' E 009°33'510.2
2017-Aug-23 22:00N 37°36' E 009°26'510.0
2017-Aug-23 21:27N 37°36' E 009°20'1110.2
2017-Aug-23 20:24N 37°36' E 009°06'410.1
2017-Aug-23 20:00N 37°37' E 009°01'510.1
2017-Aug-23 19:30N 37°37' E 008°55'510.1
2017-Aug-23 19:00N 37°37' E 008°48'510.0
2017-Aug-23 18:30N 37°36' E 008°42'5 9.9
2017-Aug-23 18:00N 37°36' E 008°36'5 9.7
2017-Aug-23 17:30N 37°35' E 008°30'5 9.6
2017-Aug-23 17:00N 37°35' E 008°24'5 9.5
2017-Aug-23 16:30N 37°34' E 008°18'5 9.5
2017-Aug-23 15:56N 37°34' E 008°11'4 9.5
2017-Aug-23 15:29N 37°34' E 008°06'11 9.5
2017-Aug-23 14:20N 37°33' E 007°52'31 9.6
2017-Aug-23 11:05N 37°30' E 007°13'1 9.8
2017-Aug-23 11:00N 37°30' E 007°12'20 9.9
2017-Aug-23 09:01N 37°28' E 006°47'310.2
2017-Aug-23 08:45N 37°28' E 006°43'310.1
2017-Aug-23 08:27N 37°27' E 006°40'410.0
2017-Aug-23 08:00N 37°27' E 006°34'5 9.9
2017-Aug-23 07:30N 37°26' E 006°28'5 9.6
2017-Aug-23 07:00N 37°26' E 006°22'5 9.4
2017-Aug-23 06:30N 37°25' E 006°16'15 9.4
2017-Aug-23 04:54N 37°24' E 005°57'5 9.1
2017-Aug-23 04:24N 37°24' E 005°51'4 9.0
2017-Aug-23 04:00N 37°23' E 005°47'11 9.1
2017-Aug-23 02:46N 37°22' E 005°33'2 9.2
2017-Aug-23 02:30N 37°22' E 005°30'67 9.5
2017-Aug-22 19:27N 37°16' E 004°06'4 9.4
2017-Aug-22 19:00N 37°15' E 004°01'6 9.6
2017-Aug-22 18:24N 37°14' E 003°53'4 9.6
2017-Aug-22 18:00N 37°13' E 003°49'6 9.7
2017-Aug-22 17:26N 37°12' E 003°42'14 9.3
2017-Aug-22 15:55N 37°10' E 003°25'28 9.9
2017-Aug-22 13:06N 37°05' E 002°50'110.1
2017-Aug-22 13:00N 37°05' E 002°49'910.0
2017-Aug-22 12:06N 37°03' E 002°38'56 9.4
2017-Aug-22 06:09N 36°53' E 001°29'1 9.5
2017-Aug-22 06:00N 36°53' E 001°27'11 9.6
2017-Aug-22 04:52N 36°51' E 001°13'4 9.9
2017-Aug-22 04:26N 36°50' E 001°08'1410.1
2017-Aug-22 03:04N 36°49' E 000°51'1 9.9
2017-Aug-22 02:58N 36°49' E 000°50'510.0
2017-Aug-22 02:30N 36°47' E 000°44'510.1
2017-Aug-22 01:58N 36°46' E 000°38'510.0
2017-Aug-22 01:29N 36°45' E 000°32'5 9.8
2017-Aug-22 01:00N 36°45' E 000°26'5 9.5
2017-Aug-22 00:30N 36°44' E 000°20'5 9.3
2017-Aug-21 23:57N 36°43' E 000°14'4 9.0
2017-Aug-21 23:29N 36°42' E 000°09'4 8.7
2017-Aug-21 22:59N 36°41' E 000°03'6 8.5
2017-Aug-21 22:20N 36°40' W 000°03'3 8.7
2017-Aug-21 22:00N 36°40' W 000°07'5 8.7
2017-Aug-21 21:28N 36°39' W 000°13'4 8.6
2017-Aug-21 20:59N 36°38' W 000°18'4 8.6
2017-Aug-21 20:30N 36°37' W 000°23'4 8.2
2017-Aug-21 20:00N 36°37' W 000°28'4 8.1
2017-Aug-21 19:31N 36°36' W 000°33'4 8.2
2017-Aug-21 19:00N 36°35' W 000°38'8 8.0
2017-Aug-21 18:00N 36°34' W 000°48'4 7.9
2017-Aug-21 17:30N 36°33' W 000°53'4 8.4
2017-Aug-21 17:00N 36°33' W 000°58'205 9.1
2017-Aug-20 18:26N 36°01' W 005°09'4 9.7
2017-Aug-20 18:01N 36°01' W 005°14'510.1
2017-Aug-20 17:31N 35°59' W 005°20'612.6
2017-Aug-20 17:00N 35°57' W 005°28'912.3
2017-Aug-20 16:15N 35°55' W 005°39'512.3
2017-Aug-20 15:52N 35°55' W 005°44'611.5
2017-Aug-20 15:22N 35°55' W 005°51'82 8.1
2017-Aug-20 05:16N 36°09' W 007°31'3 7.7
2017-Aug-20 04:54N 36°10' W 007°34'10 9.1
2017-Aug-20 03:47N 36°12' W 007°46'3510.6
2017-Aug-20 00:30N 36°20' W 008°28'810.8
2017-Aug-19 23:46N 36°22' W 008°38'810.4
2017-Aug-19 22:58N 36°24' W 008°48'710.6
2017-Aug-19 22:21N 36°25' W 008°56'410.7
2017-Aug-19 22:00N 36°26' W 009°00'510.6
2017-Aug-19 21:30N 36°27' W 009°07'510.6
2017-Aug-19 21:00N 36°29' W 009°13'510.5
2017-Aug-19 20:30N 36°30' W 009°19'510.6
2017-Aug-19 20:00N 36°34' W 009°24'510.8
2017-Aug-19 19:30N 36°37' W 009°29'510.8
2017-Aug-19 19:00N 36°41' W 009°33'510.9
2017-Aug-19 18:31N 36°46' W 009°37'611.6
2017-Aug-19 18:00N 36°51' W 009°39'611.4
2017-Aug-19 17:30N 36°57' W 009°41'611.2
2017-Aug-19 17:00N 37°02' W 009°42'511.0
2017-Aug-19 16:30N 37°08' W 009°44'611.3
2017-Aug-19 16:00N 37°13' W 009°45'611.1
2017-Aug-19 15:30N 37°19' W 009°47'510.9
2017-Aug-19 15:00N 37°24' W 009°49'1010.4
2017-Aug-19 14:00N 37°34' W 009°52'510.8
2017-Aug-19 13:30N 37°39' W 009°54'711.3
2017-Aug-19 12:56N 37°45' W 009°56'511.2
2017-Aug-19 12:31N 37°50' W 009°57'611.1
2017-Aug-19 12:00N 37°55' W 009°59'510.9
2017-Aug-19 11:30N 38°01' W 010°00'510.8
2017-Aug-19 11:00N 38°06' W 010°01'510.7
2017-Aug-19 10:30N 38°11' W 010°03'510.8
2017-Aug-19 10:00N 38°17' W 010°05'510.9
2017-Aug-19 09:30N 38°22' W 010°07'510.9
2017-Aug-19 09:01N 38°27' W 010°08'611.1
2017-Aug-19 08:30N 38°33' W 010°10'611.5
2017-Aug-19 08:00N 38°38' W 010°11'510.8
2017-Aug-19 07:30N 38°44' W 010°12'611.1
2017-Aug-19 07:00N 38°49' W 010°12'611.0
2017-Aug-19 06:30N 38°55' W 010°12'611.6
2017-Aug-19 06:00N 39°00' W 010°12'611.6
2017-Aug-19 05:30N 39°06' W 010°12'611.1
2017-Aug-19 05:00N 39°12' W 010°12'611.1
2017-Aug-19 04:30N 39°17' W 010°13'511.0
2017-Aug-19 04:00N 39°23' W 010°13'611.1
2017-Aug-19 03:30N 39°28' W 010°12'611.4
2017-Aug-19 02:59N 39°34' W 010°12'611.3
2017-Aug-19 02:28N 39°40' W 010°12'  
2017-Aug-16 13:54N 48°56' W 005°38'5 9.5
2017-Aug-16 13:22N 48°59' W 005°31'5 9.5
2017-Aug-16 12:48N 49°02' W 005°24'4 9.4
2017-Aug-16 12:25N 49°04' W 005°20'4 9.4
2017-Aug-16 11:57N 49°06' W 005°14'4 9.1
2017-Aug-16 11:27N 49°08' W 005°08'4 9.0
2017-Aug-16 10:59N 49°10' W 005°02'6 9.0
2017-Aug-16 10:18N 49°14' W 004°54'3 8.9
2017-Aug-16 10:00N 49°15' W 004°51'5 8.9
2017-Aug-16 09:27N 49°17' W 004°44'15 9.4
2017-Aug-16 07:51N 49°25' W 004°24'410.0
2017-Aug-16 07:26N 49°27' W 004°19'410.1
2017-Aug-16 07:00N 49°29' W 004°13'  

Dump ship's entire track history